Terminal Aerodrome Forecast
Issued by NWS

Home | Current Version | Previous Version | Text Only | Print | Product List | Glossary On
Versions: 1 2 3 4 5 6 7 8 9 10 11 12
000
FTUS46 KSTO 261122
TAFRDD
TAF
KRDD 261122Z 2612/2712 VRB03KT P6SM SKC
     FM262000 18008KT P6SM FEW070 BKN150
     FM270000 19010KT P6SM VCSH BKN050
     FM270400 VRB04KT P6SM SCT080=

USA.gov is the U.S. government's official web portal to all federal, state and local government web resources and services.